Time;durP1;ratioP1;P1;durP2;ratioP2;P2;SDS_P1;SDS_P2;PMS_P1;PMS_P2;Temp;Humidity;BMP_temperature;BMP_pressure;BME280_temperature;BME280_humidity;BME280_pressure;Samples;Min_cycle;Max_cycle;Signal;HPM_P1;HPM_P2
2023/07/12 00:01:27;;;;;;;8.63;2.88;;;19.90;99.90;;;;;;4965872;28;20431;-69
2023/07/12 00:03:53;;;;;;;3.47;2.47;;;;;;;;;;4994134;28;20049;-67
2023/07/12 00:06:51;;;;;;;5.55;2.40;;;19.70;99.90;;;;;;4977513;28;20042;-69
2023/07/12 00:09:27;;;;;;;3.85;2.55;;;19.60;99.90;;;;;;4976348;28;20426;-69
2023/07/12 00:12:03;;;;;;;5.45;3.30;;;19.80;99.90;;;;;;4978340;28;20053;-73
2023/07/12 00:14:36;;;;;;;3.70;2.60;;;19.70;99.90;;;;;;4995602;28;20081;-69
2023/07/12 00:17:07;;;;;;;5.75;3.15;;;19.80;99.90;;;;;;4978639;28;20383;-69
2023/07/12 00:19:33;;;;;;;4.50;2.63;;;19.80;99.90;;;;;;4977792;28;20073;-69
2023/07/12 00:25:03;;;;;;;5.90;2.85;;;18.20;99.90;;;;;;4971727;28;20048;-70
2023/07/12 00:27:55;;;;;;;4.75;2.85;;;19.90;99.90;;;;;;4977832;28;20540;-70
2023/07/12 00:30:34;;;;;;;9.75;2.97;;;20.70;99.90;;;;;;4977559;28;20446;-70
2023/07/12 00:33:11;;;;;;;4.53;2.78;;;19.40;99.90;;;;;;4977392;28;20042;-70
2023/07/12 00:35:49;;;;;;;4.18;2.70;;;19.50;99.90;;;;;;4962002;28;20051;-70
2023/07/12 00:38:48;;;;;;;;;;;;;;;;;;;;;
2023/07/12 00:41:44;;;;;;;5.72;3.30;;;19.40;99.90;;;;;;4975993;28;20098;-70
2023/07/12 00:44:28;;;;;;;3.88;2.70;;;19.40;99.90;;;;;;4977598;28;20042;-70
2023/07/12 00:47:16;;;;;;;;;;;;;;;;;;;;;
2023/07/12 00:49:59;;;;;;;7.68;3.45;;;19.30;99.90;;;;;;4977388;28;20042;-70
2023/07/12 00:52:33;;;;;;;6.65;3.58;;;19.80;99.90;;;;;;4976701;28;20038;-70
2023/07/12 00:55:03;;;;;;;6.47;3.97;;;19.40;99.90;;;;;;4961794;28;20387;-69
2023/07/12 00:57:34;;;;;;;7.80;3.58;;;19.40;99.90;;;;;;4977214;28;20057;-70
2023/07/12 01:00:30;;;;;;;4.60;3.42;;;19.30;99.90;;;;;;4976272;28;20141;-72
2023/07/12 01:02:57;;;;;;;8.57;4.00;;;19.10;99.90;;;;;;4986557;28;20050;-70
2023/07/12 01:05:36;;;;;;;4.40;2.95;;;19.60;99.90;;;;;;4977852;28;20043;-70
2023/07/12 01:08:21;;;;;;;7.03;3.90;;;19.40;99.90;;;;;;4997185;28;20046;-70
2023/07/12 01:11:38;;;;;;;5.18;3.22;;;18.40;99.90;;;;;;4980610;28;20509;-70
2023/07/12 01:14:32;;;;;;;6.10;2.88;;;19.50;99.90;;;;;;4973072;28;20050;-70
2023/07/12 01:17:30;;;;;;;3.85;2.97;;;21.50;99.90;;;;;;4990194;28;20042;-70
2023/07/12 01:20:13;;;;;;;4.10;2.88;;;19.20;99.90;;;;;;4993926;28;20580;-69
2023/07/12 01:22:43;;;;;;;;;;;19.60;99.90;;;;;;4961240;28;20035;-70
2023/07/12 01:25:17;;;;;;;5.63;3.10;;;20.80;99.90;;;;;;4994263;28;20385;-69
2023/07/12 01:27:56;;;;;;;5.07;3.47;;;19.20;99.90;;;;;;4994059;28;20046;-70
2023/07/12 01:30:50;;;;;;;6.75;3.45;;;19.10;99.90;;;;;;4976508;28;20081;-69
2023/07/12 01:34:03;;;;;;;10.52;3.85;;;19.50;99.90;;;;;;4994099;28;20533;-69
2023/07/12 01:36:31;;;;;;;7.45;2.97;;;19.10;99.90;;;;;;4883964;29;20065;-70
2023/07/12 01:39:02;;;;;;;6.80;3.15;;;20.20;99.90;;;;;;4964208;28;20053;-69
2023/07/12 01:41:58;;;;;;;9.60;3.88;;;19.20;99.90;;;;;;4959681;28;20050;-69
2023/07/12 01:44:57;;;;;;;;;;;;;;;;;;;;;
2023/07/12 01:47:36;;;;;;;12.02;3.92;;;19.10;99.90;;;;;;4993761;28;20498;-68
2023/07/12 01:50:18;;;;;;;8.35;3.40;;;19.00;99.90;;;;;;4980839;23;20081;-70
2023/07/12 01:53:37;;;;;;;;;;;;;;;;;;;;;
2023/07/12 01:56:31;;;;;;;9.00;3.88;;;19.20;99.90;;;;;;4879215;29;20063;-69
2023/07/12 01:59:11;;;;;;;9.48;3.92;;;19.00;99.90;;;;;;4900046;29;20060;-69
2023/07/12 02:02:08;;;;;;;8.05;3.70;;;19.00;99.90;;;;;;4937513;29;20098;-69
2023/07/12 02:04:51;;;;;;;9.43;4.28;;;19.00;99.90;;;;;;4937407;28;20047;-70
2023/07/12 02:07:42;;;;;;;11.68;4.15;;;18.90;99.90;;;;;;4954415;28;20047;-69
2023/07/12 02:10:44;;;;;;;11.82;3.67;;;18.90;99.90;;;;;;4955910;28;20435;-70
2023/07/12 02:14:01;;;;;;;13.27;4.20;;;19.30;99.90;;;;;;4941572;28;20122;-68
2023/07/12 02:17:11;;;;;;;10.48;3.72;;;19.10;99.90;;;;;;4972715;28;20503;-70
2023/07/12 02:19:51;;;;;;;9.27;3.65;;;19.00;99.90;;;;;;4955397;28;20133;-70
2023/07/12 02:22:17;;;;;;;12.60;3.67;;;;;;;;;;4939916;28;20043;-69
2023/07/12 02:24:43;;;;;;;13.30;4.97;;;19.10;99.90;;;;;;4956762;28;20411;-69
2023/07/12 02:27:41;;;;;;;11.88;4.07;;;19.00;99.90;;;;;;4956386;28;20049;-69
2023/07/12 02:30:13;;;;;;;12.85;4.43;;;18.80;99.90;;;;;;4888787;28;20052;-69
2023/07/12 02:33:04;;;;;;;6.53;3.25;;;18.90;99.90;;;;;;4972443;28;20418;-70
2023/07/12 02:35:33;;;;;;;7.40;3.25;;;18.90;99.90;;;;;;4940476;28;20078;-70
2023/07/12 02:38:07;;;;;;;10.15;3.30;;;18.60;99.90;;;;;;4955622;28;20098;-70
2023/07/12 02:40:53;;;;;;;11.05;4.05;;;19.00;99.90;;;;;;4940893;28;20051;-69
2023/07/12 02:43:40;;;;;;;12.43;4.05;;;19.30;99.90;;;;;;4957055;28;20082;-70
2023/07/12 02:46:34;;;;;;;11.68;4.20;;;18.80;99.90;;;;;;4956000;28;20039;-70
2023/07/12 02:49:02;;;;;;;13.32;4.50;;;18.60;99.90;;;;;;4954523;28;20054;-70
2023/07/12 02:51:49;;;;;;;;;;;;;;;;;;;;;
2023/07/12 02:54:18;;;;;;;9.45;3.25;;;18.60;99.90;;;;;;4954842;28;20057;-69
2023/07/12 02:56:51;;;;;;;10.20;3.60;;;18.50;99.90;;;;;;4940146;28;20126;-74
2023/07/12 02:59:17;;;;;;;10.00;4.55;;;18.70;99.90;;;;;;4955389;28;20047;-69
2023/07/12 03:01:47;;;;;;;8.65;3.33;;;18.70;99.90;;;;;;4939550;28;20049;-69
2023/07/12 03:04:16;;;;;;;14.98;4.05;;;18.70;99.90;;;;;;4955307;28;20106;-69
2023/07/12 03:06:43;;;;;;;13.45;3.90;;;18.60;99.90;;;;;;4956518;28;20042;-70
2023/07/12 03:09:21;;;;;;;8.43;4.07;;;18.70;99.90;;;;;;4955716;28;20051;-70
2023/07/12 03:11:53;;;;;;;11.95;3.75;;;18.80;99.90;;;;;;4956012;28;20049;-69
2023/07/12 03:14:22;;;;;;;12.05;4.28;;;18.50;99.90;;;;;;4956501;28;20046;-70
2023/07/12 03:17:05;;;;;;;16.38;4.75;;;18.50;99.90;;;;;;4972266;28;20051;-69
2023/07/12 03:19:53;;;;;;;12.77;4.80;;;18.60;99.90;;;;;;4955282;28;20098;-69
2023/07/12 03:22:51;;;;;;;12.77;4.28;;;18.50;99.90;;;;;;4956186;28;20043;-69
2023/07/12 03:25:23;;;;;;;15.43;4.57;;;18.60;99.90;;;;;;4956339;28;20086;-69
2023/07/12 03:27:50;;;;;;;15.48;4.50;;;18.80;99.90;;;;;;4955977;28;20079;-69
2023/07/12 03:30:16;;;;;;;12.00;4.18;;;18.60;99.90;;;;;;4939962;28;20135;-69
2023/07/12 03:32:51;;;;;;;11.63;4.30;;;;;;;;;;4939980;28;20423;-70
2023/07/12 03:35:19;;;;;;;9.80;4.40;;;18.70;99.90;;;;;;4955521;28;20123;-69
2023/07/12 03:38:25;;;;;;;;;;;;;;;;;;;;;
2023/07/12 03:40:55;;;;;;;15.80;4.63;;;18.50;99.90;;;;;;4937651;28;20059;-70
2023/07/12 03:43:24;;;;;;;12.23;4.25;;;18.90;99.90;;;;;;4956207;28;20078;-69
2023/07/12 03:46:08;;;;;;;16.00;3.83;;;18.90;99.90;;;;;;4955415;28;20051;-69
2023/07/12 03:49:10;;;;;;;19.10;5.35;;;18.60;99.90;;;;;;4954901;28;20051;-70
2023/07/12 03:52:21;;;;;;;23.95;4.65;;;18.60;99.90;;;;;;4953305;28;20120;-71
2023/07/12 03:54:54;;;;;;;14.68;4.72;;;18.80;99.90;;;;;;4955879;28;20051;-73
2023/07/12 03:57:27;;;;;;;20.98;5.65;;;;;;;;;;4957027;28;20054;-70
2023/07/12 04:00:36;;;;;;;13.73;3.70;;;18.60;99.90;;;;;;4957667;28;20050;-70
2023/07/12 04:03:11;;;;;;;16.67;4.13;;;18.50;99.90;;;;;;4953602;28;20051;-70
2023/07/12 04:05:41;;;;;;;19.13;4.70;;;18.50;99.90;;;;;;4959480;28;20041;-73
2023/07/12 04:08:18;;;;;;;14.30;4.43;;;18.50;99.90;;;;;;4958983;28;20061;-70
2023/07/12 04:10:52;;;;;;;20.52;4.82;;;18.60;99.90;;;;;;4958421;28;20034;-70
2023/07/12 04:13:18;;;;;;;19.70;5.13;;;18.50;99.90;;;;;;4976303;28;20053;-70
2023/07/12 04:15:49;;;;;;;16.60;4.55;;;18.30;99.90;;;;;;4942264;28;20051;-71
2023/07/12 04:18:20;;;;;;;13.98;4.75;;;18.60;99.90;;;;;;4958410;28;20039;-70
2023/07/12 04:21:17;;;;;;;16.83;4.60;;;18.50;99.90;;;;;;4957802;28;20043;-70
2023/07/12 04:23:53;;;;;;;15.30;4.50;;;18.50;99.90;;;;;;4957895;28;20043;-70
2023/07/12 04:26:45;;;;;;;22.17;5.30;;;18.50;99.90;;;;;;4942515;28;20105;-70
2023/07/12 04:29:24;;;;;;;14.60;5.10;;;18.40;99.90;;;;;;4958991;28;20122;-70
2023/07/12 04:31:53;;;;;;;16.80;5.35;;;18.40;99.90;;;;;;4957041;28;20129;-71
2023/07/12 04:34:22;;;;;;;19.48;4.82;;;18.30;99.90;;;;;;4958508;28;20137;-71
2023/07/12 04:37:00;;;;;;;13.77;4.30;;;18.70;99.90;;;;;;4958233;28;20050;-72
2023/07/12 04:39:47;;;;;;;19.40;5.25;;;18.50;99.90;;;;;;4959473;28;20535;-70
2023/07/12 04:42:14;;;;;;;14.07;4.40;;;18.30;99.90;;;;;;4942264;28;20046;-70
2023/07/12 04:47:59;;;;;;;;;;;;;;;;;;;;;
2023/07/12 04:50:30;;;;;;;22.58;6.30;;;18.50;99.90;;;;;;4956580;28;20106;-69
2023/07/12 04:53:03;;;;;;;18.55;4.20;;;18.80;99.90;;;;;;4957931;28;20121;-71
2023/07/12 04:55:32;;;;;;;19.38;4.68;;;18.80;99.90;;;;;;4957719;28;20491;-70
2023/07/12 04:58:48;;;;;;;18.45;5.15;;;18.50;99.90;;;;;;4941283;28;20490;-70
2023/07/12 05:01:41;;;;;;;18.63;4.50;;;18.80;99.90;;;;;;4974171;28;20081;-70
2023/07/12 05:04:13;;;;;;;19.42;4.57;;;18.80;99.90;;;;;;4957868;28;20043;-70
2023/07/12 05:06:57;;;;;;;;;;;;;;;;;;;;;
2023/07/12 05:09:37;;;;;;;20.33;5.20;;;18.90;99.90;;;;;;4957716;28;20650;-70
2023/07/12 05:12:07;;;;;;;15.93;5.15;;;18.70;99.90;;;;;;4941504;28;20130;-70
2023/07/12 05:14:35;;;;;;;20.13;4.70;;;18.70;99.90;;;;;;4958060;28;20074;-70
2023/07/12 05:17:03;;;;;;;16.30;4.72;;;19.00;99.90;;;;;;4957975;28;20514;-71
2023/07/12 05:19:49;;;;;;;22.50;5.60;;;18.80;99.90;;;;;;4958023;28;20049;-69
2023/07/12 05:22:43;;;;;;;13.95;4.65;;;18.70;99.90;;;;;;4957457;28;20042;-70
2023/07/12 05:25:14;;;;;;;21.85;4.85;;;19.00;99.90;;;;;;4938324;28;20574;-70
2023/07/12 05:27:42;;;;;;;13.60;4.45;;;19.00;99.90;;;;;;4957898;28;20038;-70
2023/07/12 05:30:20;;;;;;;17.00;4.65;;;18.80;99.90;;;;;;4957081;28;20039;-70
2023/07/12 05:32:48;;;;;;;19.15;5.30;;;19.10;99.90;;;;;;4957218;28;20383;-70
2023/07/12 05:35:24;;;;;;;16.77;4.55;;;19.20;99.90;;;;;;4957568;28;20046;-70
2023/07/12 05:38:26;;;;;;;;;;;;;;;;;;;;;
2023/07/12 05:41:27;;;;;;;18.58;5.00;;;19.20;99.90;;;;;;4948865;28;20054;-70
2023/07/12 05:43:55;;;;;;;18.50;5.95;;;19.30;99.90;;;;;;4928825;28;20522;-70
2023/07/12 05:46:30;;;;;;;17.70;5.57;;;19.50;99.90;;;;;;4940254;28;20578;-70
2023/07/12 05:48:56;;;;;;;15.45;4.95;;;19.40;99.90;;;;;;4956315;28;20046;-69
2023/07/12 05:51:32;;;;;;;22.83;5.15;;;;;;;;;;4940304;28;20058;-70
2023/07/12 05:53:58;;;;;;;12.93;4.00;;;19.40;99.90;;;;;;4942259;29;20377;-70
2023/07/12 05:57:58;;;;;;;19.50;5.38;;;19.30;99.90;;;;;;4951320;28;20075;-70
2023/07/12 06:00:06;;;;;;;20.98;5.25;;;19.40;99.90;;;;;;4909919;29;20542;-70
2023/07/12 06:02:35;;;;;;;;;;;19.70;99.90;;;;;;4950418;28;20055;-70
2023/07/12 06:05:07;;;;;;;14.82;4.90;;;;;;;;;;4934499;29;19973;-69
2023/07/12 06:08:20;;;;;;;18.05;4.47;;;19.70;99.90;;;;;;4933742;29;20099;-69
2023/07/12 06:11:25;;;;;;;;;;;;;;;;;;;;;
2023/07/12 06:14:02;;;;;;;16.52;3.83;;;20.00;99.90;;;;;;4916258;29;20126;-70
2023/07/12 06:16:47;;;;;;;22.52;4.53;;;20.20;99.90;;;;;;4929792;29;20044;-71
2023/07/12 06:19:37;;;;;;;15.45;4.22;;;20.10;99.90;;;;;;4942209;29;20043;-71
2023/07/12 06:22:06;;;;;;;15.77;4.68;;;20.40;99.90;;;;;;4926558;29;20051;-71
2023/07/12 06:24:52;;;;;;;16.67;4.55;;;20.30;99.90;;;;;;4934176;29;20039;-71
2023/07/12 06:27:45;;;;;;;18.00;5.80;;;20.20;99.90;;;;;;4937744;29;20118;-71
2023/07/12 06:30:18;;;;;;;10.18;3.85;;;20.10;99.90;;;;;;4912758;29;20524;-69
2023/07/12 06:33:41;;;;;;;;;;;;;;;;;;;;;
2023/07/12 06:36:37;;;;;;;;;;;;;;;;;;;;;
2023/07/12 06:39:09;;;;;;;19.08;4.88;;;20.30;99.90;;;;;;4933587;29;20366;-71
2023/07/12 06:42:34;;;;;;;14.38;4.38;;;20.40;99.90;;;;;;4918092;29;20480;-72
2023/07/12 06:45:12;;;;;;;18.88;4.68;;;20.50;99.90;;;;;;4928538;29;20056;-73
2023/07/12 06:47:46;;;;;;;10.32;4.03;;;20.50;99.90;;;;;;4934233;29;20574;-73
2023/07/12 06:50:33;;;;;;;16.98;5.10;;;20.60;99.90;;;;;;4933370;29;20054;-71
2023/07/12 06:52:59;;;;;;;14.82;3.92;;;20.90;99.90;;;;;;4917753;29;20044;-70
2023/07/12 06:55:34;;;;;;;16.50;5.32;;;20.90;99.90;;;;;;4918023;29;20404;-70
2023/07/12 06:58:02;;;;;;;18.27;4.10;;;20.90;99.90;;;;;;4917653;29;20040;-70
2023/07/12 07:00:31;;;;;;;15.55;4.03;;;20.80;99.90;;;;;;4917285;29;20515;-70
2023/07/12 07:03:23;;;;;;;12.95;4.05;;;21.00;99.90;;;;;;4933830;29;20055;-71
2023/07/12 07:05:52;;;;;;;16.90;4.70;;;19.10;99.90;;;;;;4934091;29;20102;-70
2023/07/12 07:08:19;;;;;;;13.63;4.30;;;21.20;99.90;;;;;;4933780;29;20563;-71
2023/07/12 07:10:51;;;;;;;16.05;3.80;;;21.00;99.90;;;;;;4934187;29;20496;-70
2023/07/12 07:13:17;;;;;;;14.02;3.55;;;20.80;99.90;;;;;;4918292;29;20135;-70
2023/07/12 07:15:45;;;;;;;15.55;4.18;;;20.80;99.90;;;;;;4918024;29;20408;-70
2023/07/12 07:18:25;;;;;;;13.32;3.17;;;20.90;99.90;;;;;;4918069;29;20083;-71
2023/07/12 07:21:38;;;;;;;;;;;;;;;;;;;;;
2023/07/12 07:24:20;;;;;;;7.97;2.72;;;20.90;99.90;;;;;;4934016;29;20039;-72
2023/07/12 07:29:57;;;;;;;7.40;3.15;;;21.20;99.90;;;;;;4914943;29;20052;-70
2023/07/12 07:32:28;;;;;;;9.18;3.00;;;21.10;99.90;;;;;;4937843;29;20039;-71
2023/07/12 07:35:37;;;;;;;7.15;3.55;;;21.70;99.90;;;;;;4921590;29;20039;-72
2023/07/12 07:38:27;;;;;;;;;;;;;;;;;;;;;
2023/07/12 07:40:55;;;;;;;12.35;3.05;;;21.50;99.90;;;;;;4936806;29;20126;-72
2023/07/12 07:43:44;;;;;;;13.73;4.07;;;20.00;99.90;;;;;;4921727;29;20044;-73
2023/07/12 07:46:24;;;;;;;;;;;;;;;;;;;;;
2023/07/12 07:49:07;;;;;;;14.13;3.80;;;20.10;99.90;;;;;;4937282;29;20055;-72
2023/07/12 07:51:38;;;;;;;14.20;3.42;;;20.00;99.90;;;;;;4920375;29;20118;-72
2023/07/12 07:54:27;;;;;;;12.15;3.40;;;20.00;99.90;;;;;;4921620;29;20051;-74
2023/07/12 07:58:09;;;;;;;;;;;;;;;;;;;;;
2023/07/12 08:00:47;;;;;;;10.65;3.72;;;20.00;99.90;;;;;;4935314;29;20524;-73
2023/07/12 08:04:06;;;;;;;;;;;;;;;;;;;;;
2023/07/12 08:06:58;;;;;;;15.10;3.92;;;20.20;99.90;;;;;;4934017;29;20051;-72
2023/07/12 08:09:32;;;;;;;14.02;3.38;;;20.10;99.90;;;;;;4936759;29;20051;-73
2023/07/12 08:12:09;;;;;;;14.35;3.80;;;19.90;99.90;;;;;;4920582;29;20492;-72
2023/07/12 08:15:02;;;;;;;;;;;;;;;;;;;;;
2023/07/12 08:18:01;;;;;;;13.13;3.83;;;20.10;99.90;;;;;;4936831;29;20127;-73
2023/07/12 08:21:01;;;;;;;13.68;4.10;;;19.90;99.90;;;;;;4904992;29;20076;-72
2023/07/12 08:23:35;;;;;;;16.75;3.70;;;19.90;99.90;;;;;;4960224;28;20043;-73
2023/07/12 08:26:48;;;;;;;11.75;3.72;;;19.90;99.90;;;;;;4945012;28;20058;-73
2023/07/12 08:29:15;;;;;;;12.63;4.38;;;22.20;99.90;;;;;;4935801;29;20054;-73
2023/07/12 08:31:41;;;;;;;10.90;3.25;;;19.80;99.90;;;;;;4934701;29;20039;-73
2023/07/12 08:34:12;;;;;;;8.10;2.92;;;19.50;99.90;;;;;;4972098;28;20070;-73
2023/07/12 08:36:38;;;;;;;8.65;3.47;;;19.70;99.90;;;;;;4955415;29;20043;-73
2023/07/12 08:39:10;;;;;;;10.55;2.80;;;19.70;99.90;;;;;;4955628;29;20459;-74
2023/07/12 08:41:41;;;;;;;18.30;3.00;;;20.00;99.90;;;;;;4923161;29;20055;-73
2023/07/12 08:44:11;;;;;;;;;;;20.00;99.90;;;;;;4956072;28;20075;-73
2023/07/12 08:46:41;;;;;;;13.07;3.10;;;20.00;99.90;;;;;;4954977;28;19922;-73
2023/07/12 08:49:09;;;;;;;11.23;3.45;;;19.90;99.90;;;;;;4939279;29;20114;-73
2023/07/12 08:51:35;;;;;;;7.80;2.63;;;19.90;99.90;;;;;;4932384;29;20070;-74
2023/07/12 08:54:02;;;;;;;8.02;3.17;;;;;;;;;;4970927;28;20499;-74
2023/07/12 08:56:27;;;;;;;8.23;3.22;;;19.80;99.90;;;;;;4938641;29;20110;-72
2023/07/12 08:59:01;;;;;;;8.82;2.90;;;19.90;99.90;;;;;;4955552;28;20043;-71
2023/07/12 09:01:49;;;;;;;16.45;4.30;;;20.30;99.90;;;;;;4971060;28;20129;-73
2023/07/12 09:04:35;;;;;;;;;;;;;;;;;;;;;
2023/07/12 09:07:10;;;;;;;7.75;2.90;;;20.90;99.90;;;;;;4955831;28;20046;-72
2023/07/12 09:09:59;;;;;;;11.05;2.95;;;21.00;99.90;;;;;;4937592;28;20051;-71
2023/07/12 09:12:45;;;;;;;8.05;2.30;;;21.40;99.90;;;;;;4934420;29;20066;-71
2023/07/12 09:15:33;;;;;;;5.15;2.03;;;21.80;99.90;;;;;;4954825;28;20051;-72
2023/07/12 09:21:39;;;;;;;10.27;3.03;;;21.70;99.90;;;;;;4895546;29;20129;-74
2023/07/12 09:24:25;;;;;;;12.82;2.38;;;21.20;99.90;;;;;;4921801;28;20075;-71
2023/07/12 09:27:13;;;;;;;5.03;2.13;;;21.00;99.90;;;;;;4970333;28;20047;-72
2023/07/12 09:29:59;;;;;;;11.35;2.70;;;21.20;99.90;;;;;;4921991;29;20040;-72
2023/07/12 09:32:32;;;;;;;9.07;2.38;;;21.30;99.90;;;;;;4922545;28;20463;-71
2023/07/12 09:35:00;;;;;;;6.82;2.40;;;21.60;99.90;;;;;;4954298;28;20055;-72
2023/07/12 09:37:27;;;;;;;5.30;2.20;;;21.50;99.90;;;;;;4954137;28;20404;-72
2023/07/12 09:39:58;;;;;;;6.60;2.72;;;21.30;99.90;;;;;;4953280;28;20098;-74
2023/07/12 09:42:29;;;;;;;5.00;2.15;;;21.50;99.90;;;;;;4954461;28;20043;-72
2023/07/12 09:44:58;;;;;;;6.05;2.80;;;22.40;99.90;;;;;;4953677;28;20043;-72
2023/07/12 09:47:38;;;;;;;7.63;2.42;;;22.00;99.90;;;;;;4955083;28;20566;-74
2023/07/12 09:50:46;;;;;;;6.60;2.25;;;22.50;99.90;;;;;;4937237;29;20051;-73
2023/07/12 09:53:39;;;;;;;6.80;2.25;;;22.20;99.90;;;;;;4954703;28;20035;-73
2023/07/12 09:56:32;;;;;;;6.45;2.22;;;22.10;99.90;;;;;;4951866;28;20043;-72
2023/07/12 09:59:22;;;;;;;6.90;2.88;;;21.60;99.90;;;;;;4962472;28;20043;-72
2023/07/12 10:02:17;;;;;;;8.43;1.52;;;21.70;99.90;;;;;;4922719;29;20043;-71
2023/07/12 10:08:17;;;;;;;10.15;2.58;;;21.90;99.90;;;;;;4894951;29;20439;-71
2023/07/12 10:11:07;;;;;;;9.77;1.85;;;22.10;99.90;;;;;;4881758;29;20124;-73
2023/07/12 10:14:00;;;;;;;6.10;1.48;;;25.00;99.90;;;;;;4916710;29;20083;-71
2023/07/12 10:16:58;;;;;;;5.43;1.70;;;21.90;99.90;;;;;;4898196;29;20060;-74
2023/07/12 10:20:59;;;;;;;6.13;1.77;;;22.10;99.90;;;;;;4913286;29;20055;-71
2023/07/12 10:27:59;;;;;;;;;;;;;;;;;;;;;
2023/07/12 10:34:31;;;;;;;6.15;1.83;;;22.10;99.90;;;;;;4822543;29;20053;-74
2023/07/12 10:49:58;;;;;;;;;;;;;;;;;;;;;
2023/07/12 10:54:14;;;;;;;;;;;;;;;;;;;;;
2023/07/12 10:56:31;;;;;;;2.03;1.25;;;22.90;99.90;;;;;;4895654;29;20044;-67
2023/07/12 10:59:30;;;;;;;4.05;1.33;;;22.80;99.90;;;;;;4901100;29;20043;-71
2023/07/12 11:02:14;;;;;;;3.20;1.45;;;23.00;99.90;;;;;;4919255;28;20413;-72
2023/07/12 11:05:09;;;;;;;;;;;;;;;;;;;;;
2023/07/12 11:07:44;;;;;;;2.90;0.98;;;23.40;99.90;;;;;;4977438;28;20046;-72
2023/07/12 11:10:47;;;;;;;;;;;;;;;;;;;;;
2023/07/12 11:13:44;;;;;;;3.33;1.08;;;23.40;99.90;;;;;;4956854;28;20117;-73
2023/07/12 11:16:26;;;;;;;3.30;1.10;;;23.40;99.90;;;;;;4911007;29;20051;-72
2023/07/12 11:19:00;;;;;;;3.65;1.20;;;23.50;99.90;;;;;;4977704;28;20124;-73
2023/07/12 11:21:29;;;;;;;10.35;2.17;;;23.50;99.90;;;;;;4961288;28;20113;-71
2023/07/12 11:24:24;;;;;;;2.55;1.25;;;23.50;99.90;;;;;;4977838;28;20101;-71
2023/07/12 11:27:00;;;;;;;5.18;1.40;;;23.80;99.90;;;;;;4978499;28;20069;-71
2023/07/12 11:29:26;;;;;;;3.45;1.20;;;23.30;99.90;;;;;;4970039;28;20050;-72
2023/07/12 11:32:45;;;;;;;4.68;1.02;;;23.70;99.90;;;;;;4977635;28;20465;-71
2023/07/12 11:35:31;;;;;;;3.97;1.10;;;23.00;99.90;;;;;;4977732;28;20054;-72
2023/07/12 11:38:15;;;;;;;4.70;1.40;;;22.80;99.90;;;;;;4977264;28;20042;-71
2023/07/12 11:40:46;;;;;;;1.88;0.90;;;22.90;99.90;;;;;;4990934;28;20030;-71
2023/07/12 11:43:49;;;;;;;;;;;;;;;;;;;;;
2023/07/12 11:46:22;;;;;;;5.57;1.25;;;23.20;99.90;;;;;;4991059;28;20525;-72
2023/07/12 11:48:59;;;;;;;3.05;1.05;;;23.20;99.90;;;;;;4994418;28;20173;-73
2023/07/12 11:51:34;;;;;;;2.47;1.10;;;24.00;99.90;;;;;;4992432;28;20113;-70
2023/07/12 11:54:09;;;;;;;7.07;1.08;;;22.40;99.90;;;;;;4993660;28;20053;-71
2023/07/12 11:56:41;;;;;;;3.97;0.90;;;22.50;99.90;;;;;;4977229;28;20041;-71
2023/07/12 11:59:19;;;;;;;4.03;1.00;;;22.60;99.90;;;;;;4962109;28;20038;-71
2023/07/12 12:01:51;;;;;;;3.40;1.20;;;21.20;99.90;;;;;;4994271;28;20104;-71
2023/07/12 12:04:25;;;;;;;5.53;0.98;;;22.80;99.90;;;;;;4994341;28;20502;-71
2023/07/12 12:06:56;;;;;;;5.38;0.95;;;23.10;99.90;;;;;;4993263;28;20510;-72
2023/07/12 12:09:27;;;;;;;5.97;1.00;;;23.20;99.90;;;;;;4980428;28;20457;-72
2023/07/12 12:14:50;;;;;;;2.13;0.90;;;23.20;99.90;;;;;;4950286;28;20047;-72
2023/07/12 12:17:29;;;;;;;3.75;0.88;;;22.80;99.90;;;;;;4975185;28;20046;-72
2023/07/12 12:20:35;;;;;;;4.85;1.67;;;23.20;99.90;;;;;;4993667;28;20567;-71
2023/07/12 12:23:24;;;;;;;3.65;0.88;;;23.10;99.90;;;;;;4977093;28;20564;-72
2023/07/12 12:26:11;;;;;;;3.08;0.80;;;23.30;99.90;;;;;;4995044;28;20045;-71
2023/07/12 12:29:07;;;;;;;7.07;1.70;;;22.90;99.90;;;;;;4962196;28;20078;-71
2023/07/12 12:35:21;;;;;;;5.68;1.33;;;23.60;99.90;;;;;;4968230;28;20050;-71
2023/07/12 12:38:13;;;;;;;4.57;1.13;;;23.00;99.90;;;;;;4978008;28;20034;-72
2023/07/12 12:41:40;;;;;;;6.27;1.00;;;25.60;99.90;;;;;;4961786;28;20047;-72
2023/07/12 12:47:45;;;;;;;5.82;1.33;;;24.30;99.90;;;;;;4978760;28;20050;-72
2023/07/12 12:50:37;;;;;;;4.15;0.60;;;23.80;99.90;;;;;;4973986;28;20046;-72
2023/07/12 12:53:24;;;;;;;5.43;1.48;;;23.50;99.10;;;;;;4971556;28;20057;-71
2023/07/12 12:59:16;;;;;;;8.45;1.10;;;25.10;99.50;;;;;;4969580;28;20046;-70
2023/07/12 13:02:12;;;;;;;6.45;0.90;;;23.60;99.60;;;;;;4976957;28;20074;-71
2023/07/12 13:04:41;;;;;;;4.25;1.00;;;23.50;99.90;;;;;;4977515;28;20093;-72
2023/07/12 13:07:28;;;;;;;5.10;1.15;;;23.60;99.90;;;;;;4961067;28;20074;-72
2023/07/12 13:10:03;;;;;;;3.30;0.95;;;23.80;99.30;;;;;;4993973;28;20038;-73
2023/07/12 13:15:48;;;;;;;4.85;0.90;;;21.80;98.50;;;;;;4966791;28;20066;-72
2023/07/12 13:21:48;;;;;;;1.80;0.70;;;22.30;98.90;;;;;;4983644;28;20136;-71
2023/07/12 13:24:19;;;;;;;3.30;0.52;;;23.80;98.80;;;;;;4977471;28;20041;-72
2023/07/12 13:27:06;;;;;;;1.30;0.68;;;23.90;98.20;;;;;;4977061;28;20129;-71
2023/07/12 13:29:50;;;;;;;1.65;0.73;;;23.70;98.80;;;;;;4975823;28;20038;-71
2023/07/12 13:36:18;;;;;;;3.75;0.70;;;23.90;98.60;;;;;;4963237;28;20411;-71
2023/07/12 13:39:12;;;;;;;3.38;1.13;;;23.70;98.30;;;;;;4975221;28;20051;-71
2023/07/12 13:45:29;;;;;;;1.92;0.57;;;23.40;99.30;;;;;;4976754;28;20176;-72
2023/07/12 13:48:40;;;;;;;;;;;;;;;;;;;;;
2023/07/12 13:51:34;;;;;;;2.47;1.00;;;23.60;99.90;;;;;;4898514;29;20048;-72
2023/07/12 13:54:09;;;;;;;5.20;1.20;;;23.20;99.90;;;;;;4969525;28;20077;-71
2023/07/12 13:56:46;;;;;;;2.58;0.98;;;23.20;99.90;;;;;;4959914;28;20090;-71
2023/07/12 13:59:27;;;;;;;;;;;;;;;;;;;;;
2023/07/12 14:03:01;;;;;;;2.75;1.02;;;22.90;99.90;;;;;;4993216;28;20053;-71
2023/07/12 14:05:31;;;;;;;1.43;0.80;;;22.60;99.90;;;;;;4975444;28;20050;-72
2023/07/12 14:08:21;;;;;;;;;;;;;;;;;;;;;
2023/07/12 14:10:58;;;;;;;3.45;1.08;;;23.20;99.90;;;;;;4975788;28;20050;-71
2023/07/12 14:13:27;;;;;;;3.85;1.45;;;23.50;99.90;;;;;;4980839;28;20054;-71
2023/07/12 14:16:14;;;;;;;;;;;;;;;;;;;;;
2023/07/12 14:19:07;;;;;;;;;;;;;;;;;;;;;
2023/07/12 14:21:55;;;;;;;;;;;;;;;;;;;;;
2023/07/12 14:24:25;;;;;;;3.28;1.17;;;23.50;99.90;;;;;;4993245;28;20070;-72
2023/07/12 14:30:09;;;;;;;3.60;1.10;;;21.10;99.90;;;;;;4967905;28;20050;-72
2023/07/12 14:32:50;;;;;;;2.90;1.08;;;23.00;99.90;;;;;;4975469;28;20073;-71
2023/07/12 14:35:54;;;;;;;3.42;1.00;;;23.20;99.90;;;;;;4993280;28;20038;-72
2023/07/12 14:38:25;;;;;;;4.50;1.25;;;23.40;99.90;;;;;;4959305;28;20042;-71
2023/07/12 14:40:58;;;;;;;6.93;1.40;;;23.40;99.90;;;;;;4958447;28;20085;-71
2023/07/12 14:44:22;;;;;;;;;;;;;;;;;;;;;
2023/07/12 14:47:21;;;;;;;5.72;1.35;;;23.10;99.90;;;;;;4974536;28;20525;-71
2023/07/12 14:53:21;;;;;;;2.05;1.02;;;26.30;99.90;;;;;;4978177;28;20179;-71
2023/07/12 14:56:47;;;;;;;4.18;1.40;;;23.40;99.90;;;;;;4982261;28;20050;-71
2023/07/12 14:59:31;;;;;;;4.88;1.40;;;23.50;99.90;;;;;;4959449;28;20038;-71
2023/07/12 15:02:23;;;;;;;3.03;1.23;;;24.30;99.90;;;;;;4974985;28;20517;-72
2023/07/12 15:05:03;;;;;;;3.97;1.13;;;24.20;99.90;;;;;;4975284;28;20141;-71
2023/07/12 15:07:48;;;;;;;1.92;0.88;;;23.90;99.90;;;;;;4977010;28;20045;-71
2023/07/12 15:10:24;;;;;;;2.53;1.30;;;24.30;99.80;;;;;;4974284;28;20045;-71
2023/07/12 15:13:02;;;;;;;2.58;0.90;;;24.00;99.90;;;;;;4959363;28;20414;-73
2023/07/12 15:15:41;;;;;;;5.30;1.25;;;23.90;99.90;;;;;;4959518;28;20038;-71
2023/07/12 15:18:25;;;;;;;4.18;0.88;;;24.80;99.90;;;;;;4959012;28;20041;-71
2023/07/12 15:21:02;;;;;;;5.18;1.05;;;25.20;99.50;;;;;;4958959;28;20082;-73
2023/07/12 15:23:47;;;;;;;3.25;1.17;;;24.60;99.90;;;;;;4958285;28;20506;-71
2023/07/12 15:26:19;;;;;;;3.85;1.02;;;24.30;99.50;;;;;;4959956;28;20041;-71
2023/07/12 15:28:56;;;;;;;2.38;1.10;;;24.60;99.90;;;;;;4958722;28;20133;-71
2023/07/12 15:31:42;;;;;;;;;;;;;;;;;;;;;
2023/07/12 15:34:27;;;;;;;1.63;0.98;;;21.30;99.30;;;;;;4975401;28;20113;-71
2023/07/12 15:36:59;;;;;;;4.22;1.33;;;26.00;99.90;;;;;;4959062;28;20081;-71
2023/07/12 15:39:40;;;;;;;5.20;1.33;;;24.90;99.90;;;;;;4959604;28;20092;-71
2023/07/12 15:42:21;;;;;;;3.33;1.52;;;26.20;99.90;;;;;;4992407;28;20100;-70
2023/07/12 15:44:50;;;;;;;7.03;1.73;;;24.70;99.90;;;;;;4975005;28;20080;-71
2023/07/12 15:47:25;;;;;;;2.85;1.38;;;25.10;99.90;;;;;;4974789;28;20086;-72
2023/07/12 15:49:51;;;;;;;3.63;1.55;;;24.30;99.90;;;;;;4975258;28;20587;-71
2023/07/12 15:52:29;;;;;;;2.70;0.75;;;24.50;99.80;;;;;;4977473;28;20038;-71
2023/07/12 15:54:57;;;;;;;3.50;1.10;;;24.70;99.30;;;;;;4962482;28;20049;-71
2023/07/12 15:57:36;;;;;;;2.90;0.98;;;24.40;99.20;;;;;;4995043;28;20042;-71